Time;durP1;ratioP1;P1;durP2;ratioP2;P2;SDS_P1;SDS_P2;PMS_P1;PMS_P2;Temp;Humidity;BMP_temperature;BMP_pressure;BME280_temperature;BME280_humidity;BME280_pressure;Samples;Min_cycle;Max_cycle;Signal;HPM_P1;HPM_P2
2021/08/18 00:01:47;;;;;;;;;;;21.80;77.60;;;;;;2619763;54;19935;-72
2021/08/18 00:04:13;;;;;;;;;;;21.80;77.20;;;;;;2620197;39;20339;-71
2021/08/18 00:06:39;;;;;;;;;;;21.80;77.00;;;;;;2619623;54;19963;-75
2021/08/18 00:09:05;;;;;;;;;;;21.80;77.40;;;;;;2619920;54;19951;-73
2021/08/18 00:11:31;;;;;;;;;;;21.70;77.60;;;;;;2619734;54;19941;-73
2021/08/18 00:13:56;;;;;;;;;;;21.70;77.60;;;;;;2619998;54;19973;-72
2021/08/18 00:16:25;;;;;;;;;;;21.60;77.70;;;;;;2620275;54;19934;-72
2021/08/18 00:18:52;;;;;;;;;;;21.60;77.30;;;;;;2620269;54;19946;-72
2021/08/18 00:21:18;;;;;;;;;;;21.60;77.90;;;;;;2620062;54;19939;-72
2021/08/18 00:23:45;;;;;;;;;;;21.60;77.90;;;;;;2620100;54;19961;-72
2021/08/18 00:26:11;;;;;;;;;;;21.60;78.30;;;;;;2620253;54;19938;-72
2021/08/18 00:28:36;;;;;;;;;;;21.50;78.20;;;;;;2619908;46;19969;-73
2021/08/18 00:31:02;;;;;;;;;;;21.50;78.90;;;;;;2620142;54;19946;-72
2021/08/18 00:33:31;;;;;;;;;;;21.40;78.90;;;;;;2619965;54;19942;-74
2021/08/18 00:35:57;;;;;;;;;;;21.30;78.50;;;;;;2619679;54;20415;-71
2021/08/18 00:38:22;;;;;;;;;;;21.30;78.20;;;;;;2619565;54;19969;-74
2021/08/18 00:40:48;;;;;;;;;;;21.40;77.70;;;;;;2619811;54;19946;-74
2021/08/18 00:43:15;;;;;;;;;;;21.40;77.30;;;;;;2619443;47;19938;-73
2021/08/18 00:45:41;;;;;;;;;;;21.40;77.80;;;;;;2619989;54;19939;-72
2021/08/18 00:48:06;;;;;;;;;;;21.50;76.60;;;;;;2618868;46;20442;-73
2021/08/18 00:50:35;;;;;;;;;;;21.50;75.80;;;;;;2619472;54;19935;-71
2021/08/18 00:53:01;;;;;;;;;;;21.60;76.10;;;;;;2618947;47;19991;-72
2021/08/18 00:55:27;;;;;;;;;;;21.60;75.90;;;;;;2619610;54;19962;-72
2021/08/18 00:57:53;;;;;;;;;;;21.60;75.60;;;;;;2619548;54;20022;-72
2021/08/18 01:00:23;;;;;;;;;;;21.60;75.50;;;;;;2619747;54;19941;-70
2021/08/18 01:10:51;;;;;;;;;;;21.50;75.50;;;;;;2626169;54;19946;31
2021/08/18 01:18:55;;;;;;;;;;;21.50;76.00;;;;;;2628985;54;19986;-76
2021/08/18 01:26:36;;;;;;;;;;;21.40;76.00;;;;;;2604228;54;19950;31
2021/08/18 01:29:09;;;;;;;;;;;21.30;75.90;;;;;;2608347;46;19942;31
2021/08/18 01:50:21;;;;;;;;;;;21.00;76.60;;;;;;2611116;54;19935;-76
2021/08/18 02:24:50;;;;;;;;;;;20.90;76.10;;;;;;2631504;54;19935;-76
2021/08/18 02:27:16;;;;;;;;;;;20.80;75.10;;;;;;2631998;46;19927;-76
2021/08/18 02:47:44;;;;;;;;;;;20.60;75.90;;;;;;2604235;54;19935;31
2021/08/18 02:50:17;;;;;;;;;;;20.60;75.80;;;;;;2603943;54;19942;31
2021/08/18 02:52:47;;;;;;;;;;;20.60;75.90;;;;;;2604710;46;19934;31
2021/08/18 03:15:50;;;;;;;;;;;20.50;75.70;;;;;;2602545;54;19949;31
2021/08/18 03:23:42;;;;;;;;;;;20.50;75.40;;;;;;2603683;54;19939;31
2021/08/18 03:34:01;;;;;;;;;;;20.50;75.40;;;;;;2602456;54;20819;31
2021/08/18 03:44:36;;;;;;;;;;;20.30;75.40;;;;;;2701214;39;20338;31
2021/08/18 03:47:10;;;;;;;;;;;20.30;74.90;;;;;;2602493;54;19949;31
2021/08/18 04:11:09;;;;;;;;;;;20.30;75.50;;;;;;2775284;31;20447;31
2021/08/18 04:27:01;;;;;;;;;;;20.40;75.40;;;;;;2603452;54;19939;31
2021/08/18 04:34:42;;;;;;;;;;;20.30;76.10;;;;;;2602712;54;20882;31
2021/08/18 04:37:14;;;;;;;;;;;20.20;75.90;;;;;;2602471;54;21815;31
2021/08/18 04:47:45;;;;;;;;;;;20.20;75.30;;;;;;2602422;54;19934;31
2021/08/18 05:00:59;;;;;;;;;;;20.20;75.10;;;;;;2602275;54;19942;31
2021/08/18 05:08:51;;;;;;;;;;;20.20;75.20;;;;;;2603008;54;20172;31
2021/08/18 05:14:05;;;;;;;;;;;20.20;75.10;;;;;;2602285;54;20838;31
2021/08/18 05:16:39;;;;;;;;;;;20.20;75.80;;;;;;2602665;46;19951;31
2021/08/18 05:24:27;;;;;;;;;;;20.30;75.70;;;;;;2602233;54;19946;31
2021/08/18 05:29:37;;;;;;;;;;;20.20;76.00;;;;;;2610598;54;19942;31
2021/08/18 05:32:10;;;;;;;;;;;20.20;75.70;;;;;;2689456;39;20441;-73
2021/08/18 05:37:23;;;;;;;;;;;20.20;76.60;;;;;;2602081;54;19946;31
2021/08/18 05:45:16;;;;;;;;;;;20.30;75.90;;;;;;2606689;54;19935;-75
2021/08/18 05:50:22;;;;;;;;;;;20.30;75.70;;;;;;2613748;54;19979;31
2021/08/18 06:05:31;;;;;;;;;;;20.10;76.90;;;;;;2602139;54;19934;31
2021/08/18 06:13:23;;;;;;;;;;;20.10;76.30;;;;;;2608298;54;19938;31
2021/08/18 06:18:23;;;;;;;;;;;20.20;76.50;;;;;;2603348;54;19938;31
2021/08/18 06:23:31;;;;;;;;;;;20.20;77.50;;;;;;2605765;54;19966;-77
2021/08/18 06:26:01;;;;;;;;;;;20.20;77.50;;;;;;2609265;54;21091;31
2021/08/18 06:30:58;;;;;;;;;;;20.20;77.90;;;;;;2609744;39;21616;31
2021/08/18 06:33:28;;;;;;;;;;;20.10;77.60;;;;;;2609909;47;20835;31
2021/08/18 06:38:24;;;;;;;;;;;20.00;76.90;;;;;;2614520;54;19974;31
2021/08/18 06:40:50;;;;;;;;;;;20.00;76.90;;;;;;2655378;31;21958;31
2021/08/18 06:45:59;;;;;;;;;;;20.00;78.30;;;;;;2615900;54;19983;31
2021/08/18 06:50:56;;;;;;;;;;;19.90;78.70;;;;;;2605245;54;21338;31
2021/08/18 06:55:54;;;;;;;;;;;20.10;77.90;;;;;;2605906;54;19934;31
2021/08/18 07:00:59;;;;;;;;;;;20.30;78.70;;;;;;2632081;54;19927;-76
2021/08/18 07:13:31;;;;;;;;;;;21.20;76.60;;;;;;2631598;54;19930;-77
2021/08/18 07:18:31;;;;;;;;;;;21.50;76.20;;;;;;2632207;54;19927;-78
2021/08/18 07:26:01;;;;;;;;;;;21.90;76.80;;;;;;2629901;54;19966;-76
2021/08/18 07:28:27;;;;;;;;;;;22.00;76.30;;;;;;2640693;39;20430;-77
2021/08/18 07:30:55;;;;;;;;;;;22.20;75.20;;;;;;2630380;47;19949;-76
2021/08/18 07:33:21;;;;;;;;;;;22.40;77.30;;;;;;2631819;46;19945;-77
2021/08/18 07:43:17;;;;;;;;;;;23.10;75.40;;;;;;2631284;54;20411;-76
2021/08/18 07:48:16;;;;;;;;;;;23.40;76.00;;;;;;2629451;54;19950;-76
2021/08/18 07:50:42;;;;;;;;;;;23.50;77.00;;;;;;2630498;46;19950;-76
2021/08/18 07:53:08;;;;;;;;;;;23.60;77.30;;;;;;2633617;39;20328;-79
2021/08/18 07:55:34;;;;;;;;;;;23.70;77.30;;;;;;2631190;47;19939;-76
2021/08/18 07:57:59;;;;;;;;;;;23.80;77.20;;;;;;2630041;47;19935;-77
2021/08/18 08:00:25;;;;;;;;;;;23.90;77.70;;;;;;2630381;54;19950;-76
2021/08/18 08:02:51;;;;;;;;;;;24.10;78.70;;;;;;2630129;46;20057;-75
2021/08/18 08:05:19;;;;;;;;;;;24.10;76.60;;;;;;2631241;47;19945;-75
2021/08/18 08:07:45;;;;;;;;;;;24.10;75.50;;;;;;2631355;47;20493;-77
2021/08/18 08:10:11;;;;;;;;;;;24.20;75.80;;;;;;2630598;47;19942;-77
2021/08/18 08:12:37;;;;;;;;;;;24.10;77.10;;;;;;2630731;54;19959;-78
2021/08/18 08:15:04;;;;;;;;;;;24.20;77.20;;;;;;2630250;46;20019;-77
2021/08/18 08:17:30;;;;;;;;;;;24.20;79.20;;;;;;2634842;31;20444;-76
2021/08/18 08:19:56;;;;;;;;;;;24.20;80.10;;;;;;2629853;54;19926;-76
2021/08/18 08:22:24;;;;;;;;;;;24.10;82.60;;;;;;2629825;46;19950;-78
2021/08/18 08:24:50;;;;;;;;;;;24.30;82.10;;;;;;2631485;54;19931;-77
2021/08/18 08:27:16;;;;;;;;;;;;;;;;;;2630488;54;19982;-75
2021/08/18 08:32:10;;;;;;;;;;;;;;;;;;2628938;54;19939;-77
2021/08/18 08:34:36;;;;;;;;;;;;;;;;;;2624464;54;19979;-77
2021/08/18 08:37:02;;;;;;;;;;;;;;;;;;2621871;46;19938;-75
2021/08/18 08:39:28;;;;;;;;;;;;;;;;;;2621712;47;19946;-75
2021/08/18 08:41:54;;;;;;;;;;;;;;;;;;2621385;54;19938;-75
2021/08/18 08:44:20;;;;;;;;;;;;;;;;;;2626763;54;19923;-76
2021/08/18 08:46:46;;;;;;;;;;;;;;;;;;2626435;46;19945;-76
2021/08/18 08:49:12;;;;;;;;;;;;;;;;;;2623828;39;20368;-76
2021/08/18 08:51:38;;;;;;;;;;;;;;;;;;2622962;47;19945;-76
2021/08/18 08:54:04;;;;;;;;;;;;;;;;;;2622534;47;19938;-75
2021/08/18 08:56:30;;;;;;;;;;;;;;;;;;2622720;47;19945;-76
2021/08/18 08:58:56;;;;;;;;;;;;;;;;;;2623912;54;19939;-75
2021/08/18 09:01:22;;;;;;;;;;;;;;;;;;2622535;46;19943;-77
2021/08/18 09:03:47;;;;;;;;;;;;;;;;;;2622746;54;19978;-76
2021/08/18 09:06:13;;;;;;;;;;;;;;;;;;2623799;54;20417;-74
2021/08/18 09:08:39;;;;;;;;;;;;;;;;;;2622104;46;20439;-76
2021/08/18 09:11:05;;;;;;;;;;;;;;;;;;2622288;47;19995;-75
2021/08/18 09:13:31;;;;;;;;;;;;;;;;;;2620550;47;19946;-76
2021/08/18 09:15:57;;;;;;;;;;;;;;;;;;2621302;54;19986;-76
2021/08/18 09:18:23;;;;;;;;;;;;;;;;;;2621433;54;19961;-75
2021/08/18 09:20:49;;;;;;;;;;;;;;;;;;2620776;46;20434;-74
2021/08/18 09:23:15;;;;;;;;;;;;;;;;;;2620506;54;19939;-75
2021/08/18 09:25:42;;;;;;;;;;;;;;;;;;2620987;54;19962;-75
2021/08/18 09:28:18;;;;;;;;;;;24.30;80.90;;;;;;2621859;54;19938;-75
2021/08/18 09:30:44;;;;;;;;;;;26.10;83.40;;;;;;2620709;47;19946;-75
2021/08/18 09:33:11;;;;;;;;;;;25.60;81.20;;;;;;2622830;54;19939;-76
2021/08/18 09:40:34;;;;;;;;;;;26.20;82.90;;;;;;2625312;54;19946;-76
2021/08/18 09:43:08;;;;;;;;;;;26.40;80.20;;;;;;2627019;54;19945;-77
2021/08/18 09:45:39;;;;;;;;;;;26.60;80.20;;;;;;2627145;46;19943;-77
2021/08/18 09:48:06;;;;;;;;;;;26.70;80.90;;;;;;2625115;54;20030;-77
2021/08/18 09:50:42;;;;;;;;;;;26.70;80.50;;;;;;2626259;47;19946;-76
2021/08/18 09:53:10;;;;;;;;;;;26.70;81.50;;;;;;2626125;54;19938;-74
2021/08/18 09:55:36;;;;;;;;;;;26.60;80.00;;;;;;2623866;47;19962;-75
2021/08/18 09:58:02;;;;;;;;;;;26.50;80.70;;;;;;2622752;47;19938;-74
2021/08/18 10:00:29;;;;;;;;;;;26.70;81.50;;;;;;2621833;54;19946;-75
2021/08/18 10:02:58;;;;;;;;;;;27.00;80.70;;;;;;2620442;54;19946;-76
2021/08/18 10:05:28;;;;;;;;;;;26.80;80.40;;;;;;2620978;54;19938;-74
2021/08/18 10:07:55;;;;;;;;;;;26.80;80.60;;;;;;2622607;47;20415;-77
2021/08/18 10:10:21;;;;;;;;;;;27.00;80.30;;;;;;2626708;54;19946;-77
2021/08/18 10:12:46;;;;;;;;;;;27.00;80.40;;;;;;2626751;47;19938;-76
2021/08/18 10:15:12;;;;;;;;;;;27.10;80.40;;;;;;2624150;47;19946;-76
2021/08/18 10:17:39;;;;;;;;;;;27.10;79.20;;;;;;2627380;54;20422;-78
2021/08/18 10:20:20;;;;;;;;;;;27.20;80.90;;;;;;2627259;54;19943;-76
2021/08/18 10:22:57;;;;;;;;;;;27.40;78.60;;;;;;2627089;54;19945;-77
2021/08/18 10:25:36;;;;;;;;;;;27.20;77.80;;;;;;2629116;54;19963;-76
2021/08/18 10:28:02;;;;;;;;;;;27.40;80.40;;;;;;2626832;46;19950;-77
2021/08/18 10:30:29;;;;;;;;;;;27.50;79.20;;;;;;2624626;46;19939;-77
2021/08/18 10:32:54;;;;;;;;;;;27.80;80.10;;;;;;2622733;54;19939;-76
2021/08/18 10:35:38;;;;;;;;;;;27.60;77.60;;;;;;2624995;54;19946;-75
2021/08/18 10:38:18;;;;;;;;;;;27.60;76.70;;;;;;2624404;46;19939;-76
2021/08/18 10:40:47;;;;;;;;;;;27.70;78.40;;;;;;2621961;54;19964;-76
2021/08/18 10:43:43;;;;;;;;;;;27.70;77.30;;;;;;2623485;39;20330;-76
2021/08/18 10:46:09;;;;;;;;;;;27.20;78.60;;;;;;2625734;46;19939;-77
2021/08/18 10:48:52;;;;;;;;;;;27.30;77.80;;;;;;2628163;39;20420;-76
2021/08/18 10:51:32;;;;;;;;;;;27.60;79.00;;;;;;2623811;46;19939;-75
2021/08/18 10:53:58;;;;;;;;;;;27.80;79.50;;;;;;2622450;46;20055;-76
2021/08/18 10:56:39;;;;;;;;;;;27.80;78.20;;;;;;2621710;46;19939;-76
2021/08/18 10:59:19;;;;;;;;;;;27.60;77.90;;;;;;2624323;39;20396;-77
2021/08/18 11:01:48;;;;;;;;;;;27.50;79.50;;;;;;2624585;39;20362;-76
2021/08/18 11:04:34;;;;;;;;;;;27.60;77.70;;;;;;2624941;54;19939;-75
2021/08/18 11:07:00;;;;;;;;;;;27.30;79.20;;;;;;2624780;39;20330;-76
2021/08/18 11:09:40;;;;;;;;;;;27.30;80.20;;;;;;2625242;54;19939;-76
2021/08/18 11:12:06;;;;;;;;;;;27.70;80.60;;;;;;2624990;46;19946;-76
2021/08/18 11:14:35;;;;;;;;;;;27.80;78.40;;;;;;2623970;54;19946;-75
2021/08/18 11:17:06;;;;;;;;;;;27.50;78.30;;;;;;2623617;54;19951;-76
2021/08/18 11:19:33;;;;;;;;;;;27.90;78.50;;;;;;2624821;54;20442;-75
2021/08/18 11:21:59;;;;;;;;;;;28.30;77.50;;;;;;2625973;31;20418;-76
2021/08/18 11:24:24;;;;;;;;;;;28.40;79.80;;;;;;2622571;54;19945;-76
2021/08/18 11:26:52;;;;;;;;;;;28.30;77.80;;;;;;2624107;54;19938;-76
2021/08/18 11:29:19;;;;;;;;;;;28.50;76.70;;;;;;2624665;54;19946;-76
2021/08/18 11:31:48;;;;;;;;;;;28.60;77.50;;;;;;2622807;46;19938;-76
2021/08/18 11:34:24;;;;;;;;;;;28.50;77.20;;;;;;2624592;54;19998;-75
2021/08/18 11:36:50;;;;;;;;;;;28.70;75.40;;;;;;2623891;54;20419;-75
2021/08/18 11:39:18;;;;;;;;;;;28.90;76.90;;;;;;2623795;46;19938;-75
2021/08/18 11:41:44;;;;;;;;;;;;;;;;;;2623889;54;20407;-75
2021/08/18 11:44:15;;;;;;;;;;;28.80;77.10;;;;;;2624021;54;19969;-77
2021/08/18 11:46:41;;;;;;;;;;;;;;;;;;2624071;39;20343;-75
2021/08/18 11:49:07;;;;;;;;;;;;;;;;;;2624267;47;19962;-76
2021/08/18 11:51:32;;;;;;;;;;;;;;;;;;2623555;39;20342;-76
2021/08/18 11:53:58;;;;;;;;;;;;;;;;;;2624660;54;19950;-77
2021/08/18 11:56:25;;;;;;;;;;;;;;;;;;2624016;54;20047;-76
2021/08/18 11:58:57;;;;;;;;;;;29.10;75.20;;;;;;2624050;54;20434;-77
2021/08/18 12:01:23;;;;;;;;;;;29.60;76.10;;;;;;2622804;54;19966;-77
2021/08/18 12:03:49;;;;;;;;;;;29.70;73.40;;;;;;2622909;54;19939;-75
2021/08/18 12:06:27;;;;;;;;;;;29.90;74.40;;;;;;2621790;47;19939;-75
2021/08/18 12:08:53;;;;;;;;;;;29.30;74.30;;;;;;2622485;54;19987;-76
2021/08/18 12:11:29;;;;;;;;;;;29.00;76.50;;;;;;2622495;54;19939;-76
2021/08/18 12:14:06;;;;;;;;;;;28.50;75.90;;;;;;2622579;46;19963;-75
2021/08/18 12:16:32;;;;;;;;;;;28.60;76.90;;;;;;2622263;54;19946;-75
2021/08/18 12:19:22;;;;;;;;;;;28.50;77.20;;;;;;2623675;54;19938;-76
2021/08/18 12:22:00;;;;;;;;;;;28.60;76.00;;;;;;2623253;39;20341;-76
2021/08/18 12:24:28;;;;;;;;;;;28.30;76.80;;;;;;2622501;46;19963;-76
2021/08/18 12:26:56;;;;;;;;;;;28.00;78.70;;;;;;2622107;46;19938;-77
2021/08/18 12:29:26;;;;;;;;;;;27.80;78.40;;;;;;2623243;31;20420;-76
2021/08/18 12:32:03;;;;;;;;;;;27.30;78.70;;;;;;2624701;54;19946;-76
2021/08/18 12:34:30;;;;;;;;;;;27.50;79.70;;;;;;2623151;54;19946;-76
2021/08/18 12:36:59;;;;;;;;;;;27.60;79.10;;;;;;2623207;54;19939;-77
2021/08/18 12:39:27;;;;;;;;;;;28.00;80.00;;;;;;2621781;46;19973;-75
2021/08/18 12:41:54;;;;;;;;;;;28.60;78.00;;;;;;2622122;47;20490;-76
2021/08/18 12:44:27;;;;;;;;;;;28.50;77.20;;;;;;2622443;46;19939;-76
2021/08/18 12:46:54;;;;;;;;;;;;;;;;;;2622508;47;19938;-75
2021/08/18 12:49:33;;;;;;;;;;;28.30;79.00;;;;;;2622524;47;20062;-75
2021/08/18 12:51:59;;;;;;;;;;;;;;;;;;2622977;54;19945;-76
2021/08/18 12:54:25;;;;;;;;;;;;;;;;;;2622640;54;19943;-77
2021/08/18 12:56:51;;;;;;;;;;;;;;;;;;2622061;46;19945;-76
2021/08/18 12:59:17;;;;;;;;;;;;;;;;;;2622098;46;20033;-76
2021/08/18 13:01:43;;;;;;;;;;;;;;;;;;2622734;54;19992;-77
2021/08/18 13:04:09;;;;;;;;;;;;;;;;;;2621152;47;19939;-76
2021/08/18 13:06:35;;;;;;;;;;;;;;;;;;2621863;54;20458;-77
2021/08/18 13:09:01;;;;;;;;;;;;;;;;;;2621619;54;19939;-76
2021/08/18 13:11:27;;;;;;;;;;;;;;;;;;2622374;54;19939;-75
2021/08/18 13:13:53;;;;;;;;;;;;;;;;;;2622392;39;20363;-76
2021/08/18 13:16:19;;;;;;;;;;;;;;;;;;2622782;54;19950;-76
2021/08/18 13:18:45;;;;;;;;;;;;;;;;;;2622611;39;20407;-75
2021/08/18 13:21:11;;;;;;;;;;;;;;;;;;2621524;46;20490;-77
2021/08/18 13:23:36;;;;;;;;;;;;;;;;;;2621239;54;19939;-76
2021/08/18 13:26:05;;;;;;;;;;;28.50;77.90;;;;;;2621117;39;19994;-76
2021/08/18 13:28:31;;;;;;;;;;;29.60;75.90;;;;;;2620789;54;19939;-75
2021/08/18 13:30:56;;;;;;;;;;;30.00;72.20;;;;;;2621676;54;19939;-74
2021/08/18 13:33:22;;;;;;;;;;;29.60;71.70;;;;;;2621950;54;20427;-75
2021/08/18 13:35:48;;;;;;;;;;;;;;;;;;2621881;54;19945;-75
2021/08/18 13:38:14;;;;;;;;;;;;;;;;;;2622344;54;19994;-76
2021/08/18 13:40:40;;;;;;;;;;;29.30;74.40;;;;;;2621873;47;19939;-77
2021/08/18 13:43:08;;;;;;;;;;;29.50;75.70;;;;;;2620624;47;19939;-76
2021/08/18 13:45:36;;;;;;;;;;;29.80;73.10;;;;;;2621291;54;19939;-76
2021/08/18 13:48:02;;;;;;;;;;;29.90;72.90;;;;;;2621224;54;19943;-76
2021/08/18 13:50:28;;;;;;;;;;;29.60;69.70;;;;;;2621571;47;19939;-76
2021/08/18 13:52:54;;;;;;;;;;;29.40;69.40;;;;;;2621382;54;19939;-76
2021/08/18 13:55:20;;;;;;;;;;;29.40;71.00;;;;;;2620939;54;20050;-77
2021/08/18 13:57:45;;;;;;;;;;;29.80;71.80;;;;;;2621400;54;19946;-76
2021/08/18 14:00:14;;;;;;;;;;;29.80;71.90;;;;;;2623616;54;19938;-76
2021/08/18 14:02:41;;;;;;;;;;;;;;;;;;2622000;54;19943;-76
2021/08/18 14:05:07;;;;;;;;;;;;;;;;;;2622150;47;19939;-75
2021/08/18 14:07:33;;;;;;;;;;;;;;;;;;2621936;47;20411;-76
2021/08/18 14:10:00;;;;;;;;;;;30.10;72.30;;;;;;2622514;54;19938;-76
2021/08/18 14:12:26;;;;;;;;;;;31.10;71.80;;;;;;2621975;47;19939;-76
2021/08/18 14:14:52;;;;;;;;;;;;;;;;;;2622720;39;20307;-76
2021/08/18 14:17:21;;;;;;;;;;;31.20;70.30;;;;;;2620528;47;19939;-76
2021/08/18 14:19:47;;;;;;;;;;;;;;;;;;2622408;54;19986;-76
2021/08/18 14:22:13;;;;;;;;;;;31.30;67.70;;;;;;2621956;47;19938;-76
2021/08/18 14:24:39;;;;;;;;;;;31.00;71.10;;;;;;2623265;54;20022;-77
2021/08/18 14:27:05;;;;;;;;;;;30.90;70.00;;;;;;2622326;47;19942;-75
2021/08/18 14:29:30;;;;;;;;;;;31.20;69.80;;;;;;2622252;54;19939;-77
2021/08/18 14:31:56;;;;;;;;;;;31.30;70.70;;;;;;2620975;54;20030;-77
2021/08/18 14:34:28;;;;;;;;;;;31.20;71.00;;;;;;2620953;54;19946;-76
2021/08/18 14:36:54;;;;;;;;;;;30.90;70.10;;;;;;2621948;54;19950;-75
2021/08/18 14:39:19;;;;;;;;;;;31.40;69.80;;;;;;2621101;54;19943;-76
2021/08/18 14:41:45;;;;;;;;;;;31.30;69.90;;;;;;2620561;47;20411;-80
2021/08/18 14:44:11;;;;;;;;;;;31.30;69.30;;;;;;2620629;39;20366;-76
2021/08/18 14:46:37;;;;;;;;;;;31.20;70.40;;;;;;2621080;54;20337;-76
2021/08/18 14:49:03;;;;;;;;;;;31.40;69.60;;;;;;2619691;47;19942;-76
2021/08/18 14:51:31;;;;;;;;;;;31.30;68.40;;;;;;2620803;54;19983;-78
2021/08/18 14:53:57;;;;;;;;;;;31.40;69.40;;;;;;2620973;54;19938;-76
2021/08/18 14:56:23;;;;;;;;;;;31.40;70.30;;;;;;2619922;47;19938;-76
2021/08/18 14:58:48;;;;;;;;;;;31.20;70.20;;;;;;2620183;47;19945;-76
2021/08/18 15:01:14;;;;;;;;;;;30.90;70.20;;;;;;2620218;54;19938;-75
2021/08/18 15:03:40;;;;;;;;;;;30.80;69.90;;;;;;2619892;47;20034;-76
2021/08/18 15:06:06;;;;;;;;;;;30.80;70.00;;;;;;2620389;39;20343;-76
2021/08/18 15:08:32;;;;;;;;;;;;;;;;;;2621251;54;19986;-75
2021/08/18 15:10:58;;;;;;;;;;;;;;;;;;2620614;47;19938;-75
2021/08/18 15:13:24;;;;;;;;;;;;;;;;;;2620984;39;20342;-75
2021/08/18 15:15:50;;;;;;;;;;;;;;;;;;2620682;47;19943;-78
2021/08/18 15:18:16;;;;;;;;;;;;;;;;;;2619970;47;19951;-77
2021/08/18 15:20:42;;;;;;;;;;;;;;;;;;2620790;47;20419;-73
2021/08/18 15:25:36;;;;;;;;;;;;;;;;;;2619260;54;20028;-71
2021/08/18 15:28:02;;;;;;;;;;;;;;;;;;2618987;54;19934;-71
2021/08/18 15:30:28;;;;;;;;;;;;;;;;;;2618973;54;19995;-71
2021/08/18 15:32:54;;;;;;;;;;;;;;;;;;2618215;54;19967;-71
2021/08/18 15:35:20;;;;;;;;;;;;;;;;;;2618873;54;19939;-71
2021/08/18 15:37:46;;;;;;;;;;;;;;;;;;2618814;54;20403;-72
2021/08/18 15:40:12;;;;;;;;;;;;;;;;;;2618991;54;20026;-71
2021/08/18 15:42:39;;;;;;;;;;;;;;;;;;2618817;54;20018;-71
2021/08/18 15:45:05;;;;;;;;;;;;;;;;;;2618938;54;20022;-71
2021/08/18 15:47:31;;;;;;;;;;;;;;;;;;2618878;54;19945;-72
2021/08/18 15:49:57;;;;;;;;;;;;;;;;;;2618767;54;19939;-71
2021/08/18 15:52:23;;;;;;;;;;;;;;;;;;2618865;54;20418;-71
2021/08/18 15:54:50;;;;;;;;;;;;;;;;;;2618864;54;20026;-71
2021/08/18 15:57:16;;;;;;;;;;;;;;;;;;2619023;54;19954;-71
2021/08/18 15:59:42;;;;;;;;;;;;;;;;;;2618994;54;19961;-71
2021/08/18 16:02:08;;;;;;;;;;;;;;;;;;2619148;54;19946;-70
2021/08/18 16:04:34;;;;;;;;;;;;;;;;;;2618643;54;19946;-71
2021/08/18 16:07:00;;;;;;;;;;;;;;;;;;2618582;54;19946;-71
2021/08/18 16:09:29;;;;;;;;;;;30.40;70.40;;;;;;2618717;54;19962;-70
2021/08/18 16:11:55;;;;;;;;;;;30.20;74.30;;;;;;2618672;54;19946;-72
2021/08/18 16:14:21;;;;;;;;;;;29.70;74.50;;;;;;2618800;54;19950;-71
2021/08/18 16:16:46;;;;;;;;;;;29.70;76.40;;;;;;2618734;54;19951;-70
2021/08/18 16:19:12;;;;;;;;;;;29.70;77.40;;;;;;2618657;54;19963;-70
2021/08/18 16:21:38;;;;;;;;;;;29.90;77.50;;;;;;2618539;54;20628;-71
2021/08/18 16:24:04;;;;;;;;;;;29.90;77.50;;;;;;2618570;54;20014;-72
2021/08/18 16:26:32;;;;;;;;;;;29.90;77.30;;;;;;2618659;54;19942;-71
2021/08/18 16:28:58;;;;;;;;;;;30.00;77.90;;;;;;2618665;54;19957;-71
2021/08/18 16:31:24;;;;;;;;;;;30.10;77.00;;;;;;2618613;54;19998;-71
2021/08/18 16:33:50;;;;;;;;;;;30.10;76.80;;;;;;2618753;54;19939;-71
2021/08/18 16:36:17;;;;;;;;;;;30.10;77.30;;;;;;2618239;47;19939;-71
2021/08/18 16:38:43;;;;;;;;;;;30.00;78.10;;;;;;2618951;54;19935;-72
2021/08/18 16:41:09;;;;;;;;;;;29.80;79.60;;;;;;2618980;54;19942;-71
2021/08/18 16:43:37;;;;;;;;;;;29.60;78.30;;;;;;2619484;39;20335;-71
2021/08/18 16:46:03;;;;;;;;;;;29.50;80.10;;;;;;2618263;54;20407;-70
2021/08/18 16:48:29;;;;;;;;;;;29.30;81.40;;;;;;2617659;54;19938;-71
2021/08/18 16:50:55;;;;;;;;;;;;;;;;;;2618605;54;19942;-72
2021/08/18 16:53:21;;;;;;;;;;;29.10;82.40;;;;;;2618552;54;19977;-71
2021/08/18 16:55:47;;;;;;;;;;;28.60;85.10;;;;;;2619475;39;20456;-72
2021/08/18 16:58:12;;;;;;;;;;;28.50;85.60;;;;;;2618349;47;20395;-72
2021/08/18 17:00:41;;;;;;;;;;;28.30;85.50;;;;;;2618517;47;19958;-71
2021/08/18 17:03:06;;;;;;;;;;;28.20;85.30;;;;;;2618829;54;19943;-70
2021/08/18 17:05:32;;;;;;;;;;;28.10;86.10;;;;;;2618944;54;20438;-71
2021/08/18 17:07:58;;;;;;;;;;;28.00;85.10;;;;;;2617564;47;20407;-72
2021/08/18 17:10:24;;;;;;;;;;;27.90;85.70;;;;;;2619481;39;20337;-71
2021/08/18 17:12:50;;;;;;;;;;;27.80;85.40;;;;;;2618019;54;19938;-71
2021/08/18 17:15:15;;;;;;;;;;;27.80;85.70;;;;;;2618682;54;19935;-71
2021/08/18 17:17:44;;;;;;;;;;;27.80;86.10;;;;;;2618869;54;19973;-71
2021/08/18 17:20:10;;;;;;;;;;;27.50;86.20;;;;;;2617861;54;19990;-71
2021/08/18 17:22:36;;;;;;;;;;;27.50;86.40;;;;;;2617892;54;19946;-70
2021/08/18 17:25:03;;;;;;;;;;;27.40;86.50;;;;;;2618245;54;19989;-70
2021/08/18 17:27:29;;;;;;;;;;;27.50;85.40;;;;;;2618369;54;20022;-72
2021/08/18 17:29:55;;;;;;;;;;;27.50;84.30;;;;;;2618038;54;20434;-70
2021/08/18 17:32:21;;;;;;;;;;;27.30;85.00;;;;;;2618304;54;19966;-71
2021/08/18 17:34:50;;;;;;;;;;;27.10;85.30;;;;;;2617908;47;19947;-71
2021/08/18 17:37:15;;;;;;;;;;;27.00;86.30;;;;;;2618264;54;20055;-71
2021/08/18 17:39:41;;;;;;;;;;;27.00;87.20;;;;;;2618519;54;19934;-70
2021/08/18 17:42:08;;;;;;;;;;;27.00;87.60;;;;;;2618560;54;19951;-72
2021/08/18 17:44:34;;;;;;;;;;;27.10;87.90;;;;;;2618621;39;20303;-71
2021/08/18 17:47:00;;;;;;;;;;;27.00;87.20;;;;;;2618188;54;19965;-70
2021/08/18 17:49:26;;;;;;;;;;;26.90;89.20;;;;;;2618131;54;19973;-71
2021/08/18 17:51:54;;;;;;;;;;;26.90;89.40;;;;;;2618736;39;20314;-70
2021/08/18 17:54:20;;;;;;;;;;;26.70;90.10;;;;;;2618124;54;19938;-72
2021/08/18 17:56:46;;;;;;;;;;;26.80;89.90;;;;;;2617675;54;20038;-71
2021/08/18 17:59:11;;;;;;;;;;;26.60;88.70;;;;;;2618097;54;19951;-70
2021/08/18 18:01:37;;;;;;;;;;;26.60;89.50;;;;;;2618060;54;19950;-70
2021/08/18 18:04:03;;;;;;;;;;;26.50;90.20;;;;;;2617940;54;19963;-70
2021/08/18 18:06:30;;;;;;;;;;;26.40;90.30;;;;;;2618269;54;19939;-70
2021/08/18 18:08:59;;;;;;;;;;;26.40;90.00;;;;;;2618439;54;19943;-72
2021/08/18 18:11:26;;;;;;;;;;;26.30;87.90;;;;;;2618333;54;19939;-71
2021/08/18 18:13:51;;;;;;;;;;;26.30;88.50;;;;;;2618351;54;19966;-71
2021/08/18 18:16:17;;;;;;;;;;;26.30;91.00;;;;;;2618565;54;19939;-70
2021/08/18 18:18:43;;;;;;;;;;;26.30;91.70;;;;;;2618099;54;20427;-70
2021/08/18 18:21:09;;;;;;;;;;;26.20;92.10;;;;;;2617984;54;20403;-71
2021/08/18 18:23:35;;;;;;;;;;;26.10;92.10;;;;;;2618591;54;19974;-70
2021/08/18 18:26:04;;;;;;;;;;;26.10;92.60;;;;;;2618151;54;19939;-72
2021/08/18 18:28:31;;;;;;;;;;;25.90;93.30;;;;;;2618832;54;19934;-70
2021/08/18 18:30:57;;;;;;;;;;;25.80;93.80;;;;;;2619313;39;20345;-70
2021/08/18 18:33:23;;;;;;;;;;;25.60;93.80;;;;;;2618433;54;19939;-70
2021/08/18 18:35:49;;;;;;;;;;;25.50;93.30;;;;;;2618676;54;19963;-71
2021/08/18 18:38:16;;;;;;;;;;;25.50;92.50;;;;;;2618819;54;20475;-71
2021/08/18 18:40:42;;;;;;;;;;;25.50;92.00;;;;;;2618987;54;19939;-70
2021/08/18 18:43:10;;;;;;;;;;;25.50;92.30;;;;;;2619682;54;19941;-70
2021/08/18 18:45:36;;;;;;;;;;;25.40;92.40;;;;;;2619199;54;19939;-71
2021/08/18 18:48:03;;;;;;;;;;;25.30;93.40;;;;;;2619316;54;19935;-70
2021/08/18 18:50:31;;;;;;;;;;;25.10;93.80;;;;;;2676899;36;19965;-71
2021/08/18 18:52:57;;;;;;;;;;;25.00;93.60;;;;;;2619185;54;19938;-70
2021/08/18 18:55:23;;;;;;;;;;;25.00;93.40;;;;;;2619632;54;19938;-70
2021/08/18 18:57:49;;;;;;;;;;;24.90;93.90;;;;;;2619616;54;19965;-69
2021/08/18 19:00:17;;;;;;;;;;;24.90;93.70;;;;;;2619474;54;19938;-71
2021/08/18 19:02:43;;;;;;;;;;;24.90;93.60;;;;;;2619550;54;19943;-70
2021/08/18 19:05:09;;;;;;;;;;;24.80;93.90;;;;;;2619332;54;19941;-70
2021/08/18 19:07:38;;;;;;;;;;;24.80;93.60;;;;;;2618183;54;20038;-70
2021/08/18 19:10:06;;;;;;;;;;;24.80;93.30;;;;;;2618664;54;19945;-70
2021/08/18 19:12:31;;;;;;;;;;;24.70;93.50;;;;;;2618924;54;19939;-70
2021/08/18 19:14:57;;;;;;;;;;;24.70;93.50;;;;;;2619102;54;19963;-70
2021/08/18 19:17:26;;;;;;;;;;;24.70;93.40;;;;;;2618469;47;19939;-70
2021/08/18 19:19:52;;;;;;;;;;;24.70;93.90;;;;;;2619239;54;19939;-70
2021/08/18 19:22:18;;;;;;;;;;;24.60;94.20;;;;;;2619320;54;19946;-70
2021/08/18 19:24:44;;;;;;;;;;;24.60;94.30;;;;;;2619150;54;19945;-70
2021/08/18 19:27:09;;;;;;;;;;;24.50;94.40;;;;;;2619440;54;19935;-70
2021/08/18 19:29:35;;;;;;;;;;;24.50;94.70;;;;;;2619117;54;19935;-70
2021/08/18 19:32:01;;;;;;;;;;;24.40;95.10;;;;;;2618924;54;19949;-70
2021/08/18 19:34:30;;;;;;;;;;;24.30;95.20;;;;;;2618834;54;19965;-71
2021/08/18 19:36:55;;;;;;;;;;;24.30;95.50;;;;;;2619225;54;20018;-71
2021/08/18 19:39:21;;;;;;;;;;;24.30;96.10;;;;;;2619331;54;19963;-69